createdAt,value
2023-02-17T06:19:08.533Z,13.66
2023-02-17T06:29:08.487Z,13.92
2023-02-17T06:39:08.548Z,15.51
2023-02-17T06:49:08.560Z,18.05
2023-02-17T06:59:08.675Z,19.53
2023-02-17T07:09:08.495Z,21.30
2023-02-17T07:19:08.576Z,21.51
2023-02-17T07:29:08.618Z,22.79
2023-02-17T07:39:08.463Z,26.19
2023-02-17T07:49:08.604Z,21.92
2023-02-17T07:59:08.523Z,19.08
2023-02-17T08:09:08.439Z,23.38
2023-02-17T08:19:08.521Z,21.58
2023-02-17T08:29:08.666Z,20.77
2023-02-17T08:39:08.755Z,20.65
2023-02-17T08:49:08.842Z,26.25
2023-02-17T08:59:08.949Z,24.14
2023-02-17T09:09:09.098Z,21.76
2023-02-17T09:19:09.240Z,22.92
2023-02-17T09:29:08.873Z,19.65
2023-02-17T09:39:10.808Z,22.62
2023-02-17T09:49:08.974Z,21.46
2023-02-17T09:59:08.884Z,22.88
2023-02-17T10:09:10.159Z,24.22
2023-02-17T10:19:09.048Z,27.32
2023-02-17T10:29:09.024Z,28.88
2023-02-17T10:39:08.904Z,32.32
2023-02-17T10:49:08.958Z,30.97
2023-02-17T10:59:09.024Z,31.77
2023-02-17T11:09:08.906Z,30.96
2023-02-17T11:19:08.869Z,27.49
2023-02-17T11:29:08.941Z,35.19
2023-02-17T11:39:08.859Z,29.30
2023-02-17T11:49:10.061Z,31.22
2023-02-17T11:59:09.194Z,6.94
2023-02-17T12:09:08.976Z,0.00
2023-02-17T12:19:08.924Z,0.00
2023-02-17T12:29:08.936Z,0.00
2023-02-17T12:39:08.879Z,21.17
2023-02-17T12:49:09.047Z,32.00
2023-02-17T12:59:09.014Z,35.24
2023-02-17T13:09:09.013Z,29.33
2023-02-17T13:19:09.162Z,35.33
2023-02-17T13:29:08.953Z,33.26
2023-02-17T13:39:09.085Z,33.26
2023-02-17T13:49:09.070Z,28.96
2023-02-17T13:59:09.061Z,29.25
2023-02-17T14:09:09.023Z,31.82
2023-02-17T14:19:09.148Z,34.59
2023-02-17T14:29:09.031Z,33.49
2023-02-17T14:39:09.159Z,28.77
2023-02-17T14:49:09.063Z,30.50
2023-02-17T14:59:08.968Z,34.27
2023-02-17T15:09:09.091Z,27.38
2023-02-17T15:19:09.050Z,31.42
2023-02-17T15:29:09.192Z,26.96
2023-02-17T15:39:09.084Z,27.64
2023-02-17T15:49:08.999Z,22.65
2023-02-17T15:59:09.141Z,25.95
2023-02-17T16:09:09.205Z,22.62
2023-02-17T16:19:09.212Z,27.00
2023-02-17T16:29:09.315Z,30.66
2023-02-17T16:39:09.343Z,30.26
2023-02-17T16:49:09.257Z,28.14
2023-02-17T16:59:09.171Z,29.47
2023-02-17T17:09:09.263Z,35.20
2023-02-17T17:19:09.252Z,29.84
2023-02-17T17:29:09.200Z,33.84
2023-02-17T17:39:09.300Z,27.48
2023-02-17T17:49:09.176Z,23.21
2023-02-17T17:59:09.364Z,24.54
2023-02-17T18:09:10.028Z,18.11
2023-02-17T18:19:09.430Z,19.91
2023-02-17T18:29:09.698Z,18.47
2023-02-17T18:39:09.800Z,15.43
2023-02-17T18:49:09.880Z,14.35
2023-02-17T18:59:10.003Z,14.54
2023-02-17T19:09:10.326Z,17.96
2023-02-17T19:19:10.363Z,17.59
